sensor_id;sensor_type;location;lat;lon;timestamp;P1;durP1;ratioP1;P2;durP2;ratioP2
56413;SDS011;42318;48.452;19.526;2023-08-20T00:04:51;8.13;;;7.30;;
56413;SDS011;42318;48.452;19.526;2023-08-20T00:09:57;8.35;;;7.35;;
56413;SDS011;42318;48.452;19.526;2023-08-20T00:14:58;8.40;;;7.20;;
56413;SDS011;42318;48.452;19.526;2023-08-20T00:20:08;9.95;;;8.10;;
56413;SDS011;42318;48.452;19.526;2023-08-20T00:25:13;9.02;;;7.63;;
56413;SDS011;42318;48.452;19.526;2023-08-20T00:30:14;9.75;;;8.27;;
56413;SDS011;42318;48.452;19.526;2023-08-20T00:35:15;9.50;;;7.40;;
56413;SDS011;42318;48.452;19.526;2023-08-20T00:40:16;11.10;;;7.88;;
56413;SDS011;42318;48.452;19.526;2023-08-20T00:45:17;8.45;;;7.47;;
56413;SDS011;42318;48.452;19.526;2023-08-20T00:50:18;8.55;;;7.55;;
56413;SDS011;42318;48.452;19.526;2023-08-20T00:55:19;8.27;;;7.47;;
56413;SDS011;42318;48.452;19.526;2023-08-20T01:00:20;9.27;;;8.32;;
56413;SDS011;42318;48.452;19.526;2023-08-20T01:05:23;11.70;;;7.97;;
56413;SDS011;42318;48.452;19.526;2023-08-20T01:10:34;9.70;;;8.10;;
56413;SDS011;42318;48.452;19.526;2023-08-20T01:15:44;8.05;;;7.30;;
56413;SDS011;42318;48.452;19.526;2023-08-20T01:20:45;9.00;;;7.88;;
56413;SDS011;42318;48.452;19.526;2023-08-20T01:30:53;11.23;;;7.90;;
56413;SDS011;42318;48.452;19.526;2023-08-20T01:35:57;7.95;;;7.15;;
56413;SDS011;42318;48.452;19.526;2023-08-20T01:40:58;8.48;;;7.60;;
56413;SDS011;42318;48.452;19.526;2023-08-20T01:45:59;8.13;;;7.35;;
56413;SDS011;42318;48.452;19.526;2023-08-20T01:51:00;8.60;;;7.32;;
56413;SDS011;42318;48.452;19.526;2023-08-20T01:56:00;9.55;;;8.05;;
56413;SDS011;42318;48.452;19.526;2023-08-20T02:01:01;8.88;;;7.97;;
56413;SDS011;42318;48.452;19.526;2023-08-20T02:06:02;9.20;;;7.88;;
56413;SDS011;42318;48.452;19.526;2023-08-20T02:11:03;8.50;;;7.70;;
56413;SDS011;42318;48.452;19.526;2023-08-20T02:16:04;8.57;;;7.68;;
56413;SDS011;42318;48.452;19.526;2023-08-20T02:21:06;8.18;;;7.38;;
56413;SDS011;42318;48.452;19.526;2023-08-20T02:26:07;8.48;;;7.60;;
56413;SDS011;42318;48.452;19.526;2023-08-20T02:31:08;8.13;;;7.32;;
56413;SDS011;42318;48.452;19.526;2023-08-20T02:36:09;8.05;;;7.25;;
56413;SDS011;42318;48.452;19.526;2023-08-20T02:41:10;9.95;;;7.70;;
56413;SDS011;42318;48.452;19.526;2023-08-20T02:46:12;8.95;;;7.63;;
56413;SDS011;42318;48.452;19.526;2023-08-20T02:51:13;8.95;;;7.95;;
56413;SDS011;42318;48.452;19.526;2023-08-20T02:56:14;8.85;;;8.02;;
56413;SDS011;42318;48.452;19.526;2023-08-20T03:01:18;9.10;;;8.23;;
56413;SDS011;42318;48.452;19.526;2023-08-20T03:06:23;9.02;;;7.93;;
56413;SDS011;42318;48.452;19.526;2023-08-20T03:11:24;8.85;;;7.80;;
56413;SDS011;42318;48.452;19.526;2023-08-20T03:16:24;8.38;;;7.40;;
56413;SDS011;42318;48.452;19.526;2023-08-20T03:21:25;8.75;;;7.95;;
56413;SDS011;42318;48.452;19.526;2023-08-20T03:26:26;8.63;;;7.78;;
56413;SDS011;42318;48.452;19.526;2023-08-20T03:31:27;8.57;;;7.78;;
56413;SDS011;42318;48.452;19.526;2023-08-20T03:36:27;7.88;;;7.18;;
56413;SDS011;42318;48.452;19.526;2023-08-20T03:41:28;8.85;;;7.97;;
56413;SDS011;42318;48.452;19.526;2023-08-20T03:46:29;8.45;;;7.35;;
56413;SDS011;42318;48.452;19.526;2023-08-20T03:51:30;9.10;;;7.75;;
56413;SDS011;42318;48.452;19.526;2023-08-20T03:56:30;9.20;;;7.93;;
56413;SDS011;42318;48.452;19.526;2023-08-20T04:01:31;9.07;;;7.57;;
56413;SDS011;42318;48.452;19.526;2023-08-20T04:06:32;8.73;;;7.82;;
56413;SDS011;42318;48.452;19.526;2023-08-20T04:11:33;9.05;;;8.15;;
56413;SDS011;42318;48.452;19.526;2023-08-20T04:16:34;11.02;;;7.82;;
56413;SDS011;42318;48.452;19.526;2023-08-20T04:21:34;8.07;;;7.28;;
56413;SDS011;42318;48.452;19.526;2023-08-20T04:26:35;7.88;;;7.07;;
56413;SDS011;42318;48.452;19.526;2023-08-20T04:31:36;8.35;;;7.55;;
56413;SDS011;42318;48.452;19.526;2023-08-20T04:36:37;10.88;;;7.57;;
56413;SDS011;42318;48.452;19.526;2023-08-20T04:41:37;8.93;;;8.02;;
56413;SDS011;42318;48.452;19.526;2023-08-20T04:46:38;8.20;;;7.40;;
56413;SDS011;42318;48.452;19.526;2023-08-20T04:51:39;9.00;;;7.63;;
56413;SDS011;42318;48.452;19.526;2023-08-20T04:56:39;10.30;;;7.72;;
56413;SDS011;42318;48.452;19.526;2023-08-20T05:01:40;9.10;;;8.15;;
56413;SDS011;42318;48.452;19.526;2023-08-20T05:06:41;10.10;;;8.50;;
56413;SDS011;42318;48.452;19.526;2023-08-20T05:11:42;9.68;;;7.90;;
56413;SDS011;42318;48.452;19.526;2023-08-20T05:16:43;9.32;;;8.43;;
56413;SDS011;42318;48.452;19.526;2023-08-20T05:21:44;10.65;;;9.15;;
56413;SDS011;42318;48.452;19.526;2023-08-20T05:26:44;10.38;;;8.55;;
56413;SDS011;42318;48.452;19.526;2023-08-20T05:31:45;9.75;;;8.55;;
56413;SDS011;42318;48.452;19.526;2023-08-20T05:36:46;9.20;;;8.15;;
56413;SDS011;42318;48.452;19.526;2023-08-20T05:41:47;10.23;;;8.63;;
56413;SDS011;42318;48.452;19.526;2023-08-20T05:46:47;9.80;;;8.68;;
56413;SDS011;42318;48.452;19.526;2023-08-20T05:51:48;11.15;;;9.43;;
56413;SDS011;42318;48.452;19.526;2023-08-20T05:56:49;10.45;;;9.20;;
56413;SDS011;42318;48.452;19.526;2023-08-20T06:01:50;14.07;;;9.85;;
56413;SDS011;42318;48.452;19.526;2023-08-20T06:06:53;11.27;;;9.32;;
56413;SDS011;42318;48.452;19.526;2023-08-20T06:11:53;9.05;;;8.15;;
56413;SDS011;42318;48.452;19.526;2023-08-20T06:16:54;13.63;;;10.73;;
56413;SDS011;42318;48.452;19.526;2023-08-20T06:21:55;12.90;;;9.48;;
56413;SDS011;42318;48.452;19.526;2023-08-20T06:26:56;11.55;;;9.45;;
56413;SDS011;42318;48.452;19.526;2023-08-20T06:31:57;11.82;;;10.73;;
56413;SDS011;42318;48.452;19.526;2023-08-20T06:36:58;10.32;;;8.90;;
56413;SDS011;42318;48.452;19.526;2023-08-20T06:41:59;12.02;;;9.82;;
56413;SDS011;42318;48.452;19.526;2023-08-20T06:47:00;10.65;;;9.63;;
56413;SDS011;42318;48.452;19.526;2023-08-20T06:52:00;11.40;;;9.63;;
56413;SDS011;42318;48.452;19.526;2023-08-20T06:57:01;13.93;;;9.98;;
56413;SDS011;42318;48.452;19.526;2023-08-20T07:02:02;11.25;;;10.07;;
56413;SDS011;42318;48.452;19.526;2023-08-20T07:07:03;10.30;;;9.27;;
56413;SDS011;42318;48.452;19.526;2023-08-20T07:12:08;11.70;;;10.07;;
56413;SDS011;42318;48.452;19.526;2023-08-20T07:17:09;10.40;;;9.13;;
56413;SDS011;42318;48.452;19.526;2023-08-20T07:22:09;12.43;;;9.63;;
56413;SDS011;42318;48.452;19.526;2023-08-20T07:27:10;11.40;;;9.18;;
56413;SDS011;42318;48.452;19.526;2023-08-20T07:32:12;9.80;;;8.90;;
56413;SDS011;42318;48.452;19.526;2023-08-20T07:37:13;9.77;;;8.80;;
56413;SDS011;42318;48.452;19.526;2023-08-20T07:42:14;9.38;;;8.48;;
56413;SDS011;42318;48.452;19.526;2023-08-20T07:47:15;9.25;;;8.15;;
56413;SDS011;42318;48.452;19.526;2023-08-20T07:52:15;10.27;;;9.18;;
56413;SDS011;42318;48.452;19.526;2023-08-20T07:57:16;10.70;;;9.05;;
56413;SDS011;42318;48.452;19.526;2023-08-20T08:02:17;13.40;;;8.90;;
56413;SDS011;42318;48.452;19.526;2023-08-20T08:07:18;9.43;;;8.43;;
56413;SDS011;42318;48.452;19.526;2023-08-20T08:12:19;11.45;;;7.88;;
56413;SDS011;42318;48.452;19.526;2023-08-20T08:17:20;10.10;;;9.00;;
56413;SDS011;42318;48.452;19.526;2023-08-20T08:22:21;8.80;;;7.95;;
56413;SDS011;42318;48.452;19.526;2023-08-20T08:27:22;9.35;;;8.35;;
56413;SDS011;42318;48.452;19.526;2023-08-20T08:32:23;8.82;;;7.95;;
56413;SDS011;42318;48.452;19.526;2023-08-20T08:37:24;10.90;;;8.48;;
56413;SDS011;42318;48.452;19.526;2023-08-20T08:42:25;8.85;;;7.95;;
56413;SDS011;42318;48.452;19.526;2023-08-20T08:47:26;9.65;;;8.65;;
56413;SDS011;42318;48.452;19.526;2023-08-20T08:52:28;10.85;;;8.45;;
56413;SDS011;42318;48.452;19.526;2023-08-20T08:57:30;8.52;;;7.57;;
56413;SDS011;42318;48.452;19.526;2023-08-20T09:02:31;8.88;;;7.97;;
56413;SDS011;42318;48.452;19.526;2023-08-20T09:07:32;8.40;;;7.30;;
56413;SDS011;42318;48.452;19.526;2023-08-20T09:12:34;7.85;;;7.03;;
56413;SDS011;42318;48.452;19.526;2023-08-20T09:17:35;8.35;;;7.32;;
56413;SDS011;42318;48.452;19.526;2023-08-20T09:22:36;8.95;;;7.03;;
56413;SDS011;42318;48.452;19.526;2023-08-20T09:27:40;8.35;;;7.30;;
56413;SDS011;42318;48.452;19.526;2023-08-20T09:32:41;7.78;;;6.97;;
56413;SDS011;42318;48.452;19.526;2023-08-20T09:37:43;7.65;;;6.88;;
56413;SDS011;42318;48.452;19.526;2023-08-20T09:42:44;7.43;;;6.70;;
56413;SDS011;42318;48.452;19.526;2023-08-20T09:47:45;7.95;;;6.60;;
56413;SDS011;42318;48.452;19.526;2023-08-20T09:52:58;7.97;;;7.18;;
56413;SDS011;42318;48.452;19.526;2023-08-20T09:58:06;8.00;;;6.18;;
56413;SDS011;42318;48.452;19.526;2023-08-20T10:03:08;7.60;;;6.90;;
56413;SDS011;42318;48.452;19.526;2023-08-20T10:08:10;6.70;;;6.00;;
56413;SDS011;42318;48.452;19.526;2023-08-20T10:13:12;6.90;;;6.20;;
56413;SDS011;42318;48.452;19.526;2023-08-20T10:18:14;6.78;;;6.18;;
56413;SDS011;42318;48.452;19.526;2023-08-20T10:23:14;7.78;;;6.50;;
56413;SDS011;42318;48.452;19.526;2023-08-20T10:28:20;6.75;;;6.05;;
56413;SDS011;42318;48.452;19.526;2023-08-20T10:33:21;7.45;;;6.75;;
56413;SDS011;42318;48.452;19.526;2023-08-20T10:38:22;7.78;;;7.07;;
56413;SDS011;42318;48.452;19.526;2023-08-20T10:43:46;7.70;;;6.90;;
56413;SDS011;42318;48.452;19.526;2023-08-20T10:48:52;8.60;;;6.82;;
56413;SDS011;42318;48.452;19.526;2023-08-20T10:59:05;8.10;;;6.30;;
56413;SDS011;42318;48.452;19.526;2023-08-20T11:04:07;9.10;;;7.13;;
56413;SDS011;42318;48.452;19.526;2023-08-20T11:09:09;8.18;;;6.32;;
56413;SDS011;42318;48.452;19.526;2023-08-20T11:14:12;7.53;;;6.55;;
56413;SDS011;42318;48.452;19.526;2023-08-20T11:19:21;8.02;;;7.22;;
56413;SDS011;42318;48.452;19.526;2023-08-20T11:24:22;7.95;;;6.50;;
56413;SDS011;42318;48.452;19.526;2023-08-20T11:29:25;8.60;;;6.63;;
56413;SDS011;42318;48.452;19.526;2023-08-20T11:34:26;8.77;;;6.30;;
56413;SDS011;42318;48.452;19.526;2023-08-20T11:39:28;6.88;;;6.18;;
56413;SDS011;42318;48.452;19.526;2023-08-20T11:44:41;7.43;;;6.05;;
56413;SDS011;42318;48.452;19.526;2023-08-20T11:49:44;6.22;;;5.63;;
56413;SDS011;42318;48.452;19.526;2023-08-20T11:54:45;6.50;;;5.68;;
56413;SDS011;42318;48.452;19.526;2023-08-20T11:59:45;7.20;;;6.22;;
56413;SDS011;42318;48.452;19.526;2023-08-20T12:04:49;6.72;;;5.70;;
56413;SDS011;42318;48.452;19.526;2023-08-20T12:09:51;7.60;;;5.80;;
56413;SDS011;42318;48.452;19.526;2023-08-20T12:14:52;6.25;;;5.60;;
56413;SDS011;42318;48.452;19.526;2023-08-20T12:19:52;5.80;;;5.15;;
56413;SDS011;42318;48.452;19.526;2023-08-20T12:24:53;7.22;;;5.22;;
56413;SDS011;42318;48.452;19.526;2023-08-20T12:29:54;6.25;;;5.18;;
56413;SDS011;42318;48.452;19.526;2023-08-20T12:34:55;8.73;;;6.13;;
56413;SDS011;42318;48.452;19.526;2023-08-20T12:39:56;6.32;;;5.07;;
56413;SDS011;42318;48.452;19.526;2023-08-20T12:44:57;6.25;;;5.60;;
56413;SDS011;42318;48.452;19.526;2023-08-20T12:49:58;7.95;;;5.35;;
56413;SDS011;42318;48.452;19.526;2023-08-20T12:54:59;5.35;;;4.85;;
56413;SDS011;42318;48.452;19.526;2023-08-20T13:00:00;6.63;;;5.55;;
56413;SDS011;42318;48.452;19.526;2023-08-20T13:05:01;6.60;;;4.97;;
56413;SDS011;42318;48.452;19.526;2023-08-20T13:10:03;5.82;;;5.28;;
56413;SDS011;42318;48.452;19.526;2023-08-20T13:15:04;6.07;;;4.82;;
56413;SDS011;42318;48.452;19.526;2023-08-20T13:20:05;6.43;;;4.72;;
56413;SDS011;42318;48.452;19.526;2023-08-20T13:25:08;5.70;;;5.13;;
56413;SDS011;42318;48.452;19.526;2023-08-20T13:30:10;5.32;;;4.82;;
56413;SDS011;42318;48.452;19.526;2023-08-20T13:35:11;5.35;;;4.82;;
56413;SDS011;42318;48.452;19.526;2023-08-20T13:40:12;5.30;;;4.80;;
56413;SDS011;42318;48.452;19.526;2023-08-20T13:45:12;4.90;;;4.40;;
56413;SDS011;42318;48.452;19.526;2023-08-20T13:50:13;5.20;;;4.55;;
56413;SDS011;42318;48.452;19.526;2023-08-20T13:55:14;5.30;;;4.80;;
56413;SDS011;42318;48.452;19.526;2023-08-20T14:00:15;5.95;;;4.38;;
56413;SDS011;42318;48.452;19.526;2023-08-20T14:05:16;5.78;;;4.68;;
56413;SDS011;42318;48.452;19.526;2023-08-20T14:10:18;5.88;;;3.95;;
56413;SDS011;42318;48.452;19.526;2023-08-20T14:15:19;5.63;;;3.83;;
56413;SDS011;42318;48.452;19.526;2023-08-20T14:20:20;4.90;;;4.28;;
56413;SDS011;42318;48.452;19.526;2023-08-20T14:25:21;4.70;;;4.05;;
56413;SDS011;42318;48.452;19.526;2023-08-20T14:30:22;5.15;;;4.30;;
56413;SDS011;42318;48.452;19.526;2023-08-20T14:35:23;4.47;;;4.07;;
56413;SDS011;42318;48.452;19.526;2023-08-20T14:40:25;5.05;;;4.20;;
56413;SDS011;42318;48.452;19.526;2023-08-20T14:45:26;5.30;;;4.45;;
56413;SDS011;42318;48.452;19.526;2023-08-20T14:50:27;5.10;;;4.60;;
56413;SDS011;42318;48.452;19.526;2023-08-20T14:55:27;4.93;;;4.47;;
56413;SDS011;42318;48.452;19.526;2023-08-20T15:00:28;4.65;;;4.22;;
56413;SDS011;42318;48.452;19.526;2023-08-20T15:05:30;6.18;;;4.60;;
56413;SDS011;42318;48.452;19.526;2023-08-20T15:10:31;5.00;;;4.50;;
56413;SDS011;42318;48.452;19.526;2023-08-20T15:15:31;5.85;;;5.20;;
56413;SDS011;42318;48.452;19.526;2023-08-20T15:20:33;6.45;;;4.70;;
56413;SDS011;42318;48.452;19.526;2023-08-20T15:25:34;5.07;;;4.60;;
56413;SDS011;42318;48.452;19.526;2023-08-20T15:30:34;5.90;;;5.30;;
56413;SDS011;42318;48.452;19.526;2023-08-20T15:35:35;5.50;;;4.90;;
56413;SDS011;42318;48.452;19.526;2023-08-20T15:40:40;5.53;;;5.00;;
56413;SDS011;42318;48.452;19.526;2023-08-20T15:45:41;5.25;;;4.75;;
56413;SDS011;42318;48.452;19.526;2023-08-20T15:50:42;5.30;;;4.80;;
56413;SDS011;42318;48.452;19.526;2023-08-20T15:55:43;5.20;;;4.70;;
56413;SDS011;42318;48.452;19.526;2023-08-20T16:00:45;5.03;;;4.63;;
56413;SDS011;42318;48.452;19.526;2023-08-20T16:05:46;5.40;;;4.90;;
56413;SDS011;42318;48.452;19.526;2023-08-20T16:10:47;5.38;;;4.88;;
56413;SDS011;42318;48.452;19.526;2023-08-20T16:15:48;4.80;;;4.40;;
56413;SDS011;42318;48.452;19.526;2023-08-20T16:20:49;5.32;;;4.80;;
56413;SDS011;42318;48.452;19.526;2023-08-20T16:25:50;5.00;;;4.50;;
56413;SDS011;42318;48.452;19.526;2023-08-20T16:30:52;4.75;;;4.35;;
56413;SDS011;42318;48.452;19.526;2023-08-20T16:35:52;5.03;;;4.55;;
56413;SDS011;42318;48.452;19.526;2023-08-20T16:40:54;5.15;;;4.65;;
56413;SDS011;42318;48.452;19.526;2023-08-20T16:45:55;4.85;;;4.45;;
56413;SDS011;42318;48.452;19.526;2023-08-20T16:51:00;4.43;;;4.03;;
56413;SDS011;42318;48.452;19.526;2023-08-20T16:56:01;5.10;;;4.60;;
56413;SDS011;42318;48.452;19.526;2023-08-20T17:01:02;4.53;;;4.13;;
56413;SDS011;42318;48.452;19.526;2023-08-20T17:06:04;6.55;;;5.13;;
56413;SDS011;42318;48.452;19.526;2023-08-20T17:11:06;4.78;;;4.38;;
56413;SDS011;42318;48.452;19.526;2023-08-20T17:16:07;5.38;;;4.88;;
56413;SDS011;42318;48.452;19.526;2023-08-20T17:21:09;7.10;;;4.95;;
56413;SDS011;42318;48.452;19.526;2023-08-20T17:26:10;5.50;;;5.00;;
56413;SDS011;42318;48.452;19.526;2023-08-20T17:31:11;5.35;;;4.85;;
56413;SDS011;42318;48.452;19.526;2023-08-20T17:36:12;5.38;;;4.88;;
56413;SDS011;42318;48.452;19.526;2023-08-20T17:41:13;5.50;;;5.00;;
56413;SDS011;42318;48.452;19.526;2023-08-20T17:46:14;4.82;;;4.35;;
56413;SDS011;42318;48.452;19.526;2023-08-20T17:51:15;6.85;;;5.47;;
56413;SDS011;42318;48.452;19.526;2023-08-20T17:56:15;7.68;;;6.20;;
56413;SDS011;42318;48.452;19.526;2023-08-20T18:01:16;8.65;;;6.28;;
56413;SDS011;42318;48.452;19.526;2023-08-20T18:06:17;6.82;;;6.03;;
56413;SDS011;42318;48.452;19.526;2023-08-20T18:11:18;8.50;;;7.70;;
56413;SDS011;42318;48.452;19.526;2023-08-20T18:16:19;8.38;;;7.03;;
56413;SDS011;42318;48.452;19.526;2023-08-20T18:21:20;7.35;;;6.65;;
56413;SDS011;42318;48.452;19.526;2023-08-20T18:26:21;8.57;;;6.60;;
56413;SDS011;42318;48.452;19.526;2023-08-20T18:31:24;8.82;;;7.40;;
56413;SDS011;42318;48.452;19.526;2023-08-20T18:36:25;7.25;;;6.55;;
56413;SDS011;42318;48.452;19.526;2023-08-20T18:41:26;7.72;;;6.95;;
56413;SDS011;42318;48.452;19.526;2023-08-20T18:46:30;8.27;;;7.30;;
56413;SDS011;42318;48.452;19.526;2023-08-20T18:51:30;8.45;;;7.28;;
56413;SDS011;42318;48.452;19.526;2023-08-20T18:56:31;8.10;;;7.28;;
56413;SDS011;42318;48.452;19.526;2023-08-20T19:01:32;7.95;;;7.15;;
56413;SDS011;42318;48.452;19.526;2023-08-20T19:06:34;9.98;;;8.13;;
56413;SDS011;42318;48.452;19.526;2023-08-20T19:11:36;8.45;;;7.55;;
56413;SDS011;42318;48.452;19.526;2023-08-20T19:16:39;8.65;;;7.32;;
56413;SDS011;42318;48.452;19.526;2023-08-20T19:21:40;8.00;;;7.20;;
56413;SDS011;42318;48.452;19.526;2023-08-20T19:26:41;12.43;;;7.82;;
56413;SDS011;42318;48.452;19.526;2023-08-20T19:31:42;9.98;;;7.93;;
56413;SDS011;42318;48.452;19.526;2023-08-20T19:36:43;10.93;;;7.88;;
56413;SDS011;42318;48.452;19.526;2023-08-20T19:41:44;10.98;;;7.88;;
56413;SDS011;42318;48.452;19.526;2023-08-20T19:46:45;11.13;;;7.75;;
56413;SDS011;42318;48.452;19.526;2023-08-20T19:51:47;10.90;;;7.88;;
56413;SDS011;42318;48.452;19.526;2023-08-20T19:56:48;9.88;;;8.02;;
56413;SDS011;42318;48.452;19.526;2023-08-20T20:01:49;13.60;;;8.40;;
56413;SDS011;42318;48.452;19.526;2023-08-20T20:06:52;10.98;;;8.38;;
56413;SDS011;42318;48.452;19.526;2023-08-20T20:11:53;8.20;;;7.32;;
56413;SDS011;42318;48.452;19.526;2023-08-20T20:16:53;11.07;;;7.40;;
56413;SDS011;42318;48.452;19.526;2023-08-20T20:21:54;9.52;;;7.45;;
56413;SDS011;42318;48.452;19.526;2023-08-20T20:26:55;8.15;;;7.35;;
56413;SDS011;42318;48.452;19.526;2023-08-20T20:31:56;8.55;;;7.47;;
56413;SDS011;42318;48.452;19.526;2023-08-20T20:36:56;8.32;;;7.38;;
56413;SDS011;42318;48.452;19.526;2023-08-20T20:41:57;8.88;;;7.85;;
56413;SDS011;42318;48.452;19.526;2023-08-20T20:46:58;8.32;;;7.50;;
56413;SDS011;42318;48.452;19.526;2023-08-20T20:51:59;9.15;;;7.72;;
56413;SDS011;42318;48.452;19.526;2023-08-20T20:57:00;10.05;;;7.35;;
56413;SDS011;42318;48.452;19.526;2023-08-20T21:02:01;8.70;;;7.80;;
56413;SDS011;42318;48.452;19.526;2023-08-20T21:07:03;8.43;;;7.63;;
56413;SDS011;42318;48.452;19.526;2023-08-20T21:12:04;8.48;;;7.68;;
56413;SDS011;42318;48.452;19.526;2023-08-20T21:17:05;8.70;;;7.80;;
56413;SDS011;42318;48.452;19.526;2023-08-20T21:22:10;8.35;;;7.55;;
56413;SDS011;42318;48.452;19.526;2023-08-20T21:27:12;7.88;;;7.18;;
56413;SDS011;42318;48.452;19.526;2023-08-20T21:32:13;10.82;;;7.32;;
56413;SDS011;42318;48.452;19.526;2023-08-20T21:37:14;9.30;;;7.47;;
56413;SDS011;42318;48.452;19.526;2023-08-20T21:42:15;8.43;;;7.30;;
56413;SDS011;42318;48.452;19.526;2023-08-20T21:47:19;8.60;;;7.53;;
56413;SDS011;42318;48.452;19.526;2023-08-20T21:52:21;8.15;;;7.43;;
56413;SDS011;42318;48.452;19.526;2023-08-20T21:57:23;8.02;;;7.13;;
56413;SDS011;42318;48.452;19.526;2023-08-20T22:02:24;8.43;;;7.55;;
56413;SDS011;42318;48.452;19.526;2023-08-20T22:07:25;11.25;;;8.00;;
56413;SDS011;42318;48.452;19.526;2023-08-20T22:12:26;10.43;;;7.55;;
56413;SDS011;42318;48.452;19.526;2023-08-20T22:17:27;11.15;;;7.65;;
56413;SDS011;42318;48.452;19.526;2023-08-20T22:22:28;8.90;;;7.45;;
56413;SDS011;42318;48.452;19.526;2023-08-20T22:27:29;8.30;;;7.40;;
56413;SDS011;42318;48.452;19.526;2023-08-20T22:32:29;9.38;;;7.50;;
56413;SDS011;42318;48.452;19.526;2023-08-20T22:37:30;9.35;;;7.57;;
56413;SDS011;42318;48.452;19.526;2023-08-20T22:42:31;8.90;;;8.00;;
56413;SDS011;42318;48.452;19.526;2023-08-20T22:47:32;8.98;;;8.13;;
56413;SDS011;42318;48.452;19.526;2023-08-20T22:52:33;10.23;;;8.00;;
56413;SDS011;42318;48.452;19.526;2023-08-20T22:57:33;11.55;;;7.78;;
56413;SDS011;42318;48.452;19.526;2023-08-20T23:02:34;8.15;;;7.35;;
56413;SDS011;42318;48.452;19.526;2023-08-20T23:07:35;8.50;;;7.68;;
56413;SDS011;42318;48.452;19.526;2023-08-20T23:12:36;8.60;;;7.80;;
56413;SDS011;42318;48.452;19.526;2023-08-20T23:17:37;8.85;;;8.00;;
56413;SDS011;42318;48.452;19.526;2023-08-20T23:22:38;9.20;;;8.25;;
56413;SDS011;42318;48.452;19.526;2023-08-20T23:27:38;8.65;;;7.75;;
56413;SDS011;42318;48.452;19.526;2023-08-20T23:32:39;8.82;;;8.02;;
56413;SDS011;42318;48.452;19.526;2023-08-20T23:37:40;8.32;;;7.55;;
56413;SDS011;42318;48.452;19.526;2023-08-20T23:42:41;8.40;;;7.60;;
56413;SDS011;42318;48.452;19.526;2023-08-20T23:47:42;10.23;;;8.43;;
56413;SDS011;42318;48.452;19.526;2023-08-20T23:52:42;8.48;;;7.60;;
56413;SDS011;42318;48.452;19.526;2023-08-20T23:57:43;8.70;;;7.85;;
